Time;durP1;ratioP1;P1;durP2;ratioP2;P2;SDS_P1;SDS_P2;PMS_P1;PMS_P2;Temp;Humidity;BMP_temperature;BMP_pressure;BME280_temperature;BME280_humidity;BME280_pressure;Samples;Min_cycle;Max_cycle;Signal;HPM_P1;HPM_P2
2022/02/18 00:01:33;;;;;;;0.70;0.70;;;;;;;6.05;69.06;98600.11;104216;1277;139679;-72
2022/02/18 00:04:02;;;;;;;0.80;0.80;;;;;;;6.09;69.20;98610.67;104249;1277;108094;-71
2022/02/18 00:06:30;;;;;;;0.70;0.70;;;;;;;6.13;69.00;98610.00;104189;1277;139649;-71
2022/02/18 00:08:58;;;;;;;0.70;0.70;;;;;;;6.16;68.88;98615.54;104319;1277;95162;-72
2022/02/18 00:11:26;;;;;;;0.70;0.70;;;;;;;6.14;69.11;98624.77;104318;1277;108541;-72
2022/02/18 00:13:56;;;;;;;0.70;0.70;;;;;;;6.14;68.90;98632.36;104211;1277;142546;-72
2022/02/18 00:16:24;;;;;;;0.80;0.80;;;;;;;6.12;68.80;98637.71;104313;1277;109133;-71
2022/02/18 00:18:51;;;;;;;0.80;0.80;;;;;;;6.18;68.99;98636.09;104166;1277;141567;-72
2022/02/18 00:21:19;;;;;;;0.70;0.70;;;;;;;6.16;68.79;98639.48;104265;1277;95449;-71
2022/02/18 00:23:47;;;;;;;0.90;0.90;;;;;;;6.18;68.65;98642.09;104226;1277;140196;-72
2022/02/18 00:26:15;;;;;;;0.80;0.80;;;;;;;6.16;68.37;98642.17;104251;1277;99852;-73
2022/02/18 00:28:45;;;;;;;0.70;0.70;;;;;;;6.16;68.17;98650.95;104298;1277;109608;-71
2022/02/18 00:31:19;;;;;;;0.70;0.70;;;;;;;6.18;67.83;98650.17;104266;1278;139653;-72
2022/02/18 00:33:46;;;;;;;0.70;0.70;;;;;;;6.17;67.78;98654.09;104273;1277;95835;-70
2022/02/18 00:36:19;;;;;;;0.80;0.80;;;;;;;6.11;67.83;98659.95;104298;1278;140134;-73
2022/02/18 00:38:47;;;;;;;0.80;0.80;;;;;;;6.12;67.81;98660.83;104163;1277;100313;-71
2022/02/18 00:41:16;;;;;;;0.80;0.80;;;;;;;6.12;67.86;98662.91;104282;1276;107762;-71
2022/02/18 00:43:45;;;;;;;0.70;0.70;;;;;;;6.13;67.89;98667.80;104723;1277;140108;-72
2022/02/18 00:46:13;;;;;;;0.80;0.80;;;;;;;6.11;67.94;98679.86;104353;1277;95238;-72
2022/02/18 00:48:41;;;;;;;0.80;0.80;;;;;;;6.10;67.94;98681.31;104230;1277;139540;-72
2022/02/18 00:51:11;;;;;;;0.80;0.80;;;;;;;6.08;68.44;98681.04;104579;1277;100553;-71
2022/02/18 00:53:39;;;;;;;0.70;0.70;;;;;;;6.03;68.07;98685.42;104283;1277;107955;-71
2022/02/18 00:56:09;;;;;;;0.90;0.90;;;;;;;6.03;68.12;98689.32;104240;1277;140391;-71
2022/02/18 00:58:37;;;;;;;0.80;0.80;;;;;;;6.08;68.53;98693.38;104339;1277;95635;-71
2022/02/18 01:01:05;;;;;;;0.80;0.80;;;;;;;6.10;68.05;98685.02;104216;1277;139866;-71
2022/02/18 01:03:33;;;;;;;0.80;0.80;;;;;;;6.08;67.79;98697.58;104394;1277;99931;-72
2022/02/18 01:06:01;;;;;;;0.80;0.80;;;;;;;6.09;67.65;98706.55;104184;1277;139976;-72
2022/02/18 01:08:28;;;;;;;0.90;0.90;;;;;;;6.04;67.66;98702.30;104298;1277;95834;-72
2022/02/18 01:10:56;;;;;;;0.90;0.90;;;;;;;6.02;67.89;98703.61;104301;1277;95210;-72
2022/02/18 01:13:24;;;;;;;0.80;0.80;;;;;;;6.01;68.21;98704.52;104190;1277;141240;-71
2022/02/18 01:15:55;;;;;;;0.70;0.70;;;;;;;5.97;68.26;98702.73;104248;1277;99819;-71
2022/02/18 01:18:22;;;;;;;0.80;0.80;;;;;;;5.95;68.34;98701.90;104178;1277;139621;-71
2022/02/18 01:20:50;;;;;;;0.70;0.70;;;;;;;5.99;68.25;98707.40;104237;1277;95271;-71
2022/02/18 01:23:18;;;;;;;0.70;0.70;;;;;;;5.98;67.84;98705.14;104261;1277;95215;-71
2022/02/18 01:25:47;;;;;;;0.70;0.70;;;;;;;6.03;68.09;98705.86;104253;1277;139706;-71
2022/02/18 01:28:15;;;;;;;0.80;0.80;;;;;;;6.03;67.78;98710.79;104286;1277;99508;-71
2022/02/18 01:30:43;;;;;;;0.70;0.70;;;;;;;5.99;67.74;98716.39;104199;1276;139125;-71
2022/02/18 01:33:11;;;;;;;0.80;0.80;;;;;;;5.97;67.60;98723.48;104282;1277;95758;-71
2022/02/18 01:35:39;;;;;;;0.80;0.80;;;;;;;5.95;67.07;98727.27;104254;1277;95261;-72
2022/02/18 01:38:06;;;;;;;0.70;0.70;;;;;;;5.97;66.78;98729.13;104205;1277;142079;-71
2022/02/18 01:40:35;;;;;;;0.70;0.70;;;;;;;5.98;66.85;98729.27;104304;1277;100020;-71
2022/02/18 01:43:03;;;;;;;0.80;0.80;;;;;;;5.97;66.80;98733.70;104116;1277;139614;-72
2022/02/18 01:45:31;;;;;;;0.80;0.80;;;;;;;5.98;66.65;98731.38;104243;1276;95319;-71
2022/02/18 01:47:59;;;;;;;0.80;0.80;;;;;;;6.01;66.97;98735.18;104163;1277;140877;-71
2022/02/18 01:50:27;;;;;;;0.80;0.80;;;;;;;6.02;66.75;98736.73;104306;1276;110333;-70
2022/02/18 01:52:56;;;;;;;0.80;0.80;;;;;;;6.05;66.53;98734.86;104176;1277;99890;-71
2022/02/18 01:55:24;;;;;;;0.80;0.80;;;;;;;6.07;66.42;98740.98;104202;1276;139181;-71
2022/02/18 01:57:56;;;;;;;0.80;0.80;;;;;;;6.10;66.42;98742.98;104230;1274;95464;-70
2022/02/18 02:00:29;;;;;;;0.70;0.70;;;;;;;6.11;66.08;98744.71;104256;1276;140061;-72
2022/02/18 02:02:58;;;;;;;0.70;0.70;;;;;;;6.08;66.13;98745.86;104430;1276;109707;-71
2022/02/18 02:05:26;;;;;;;0.70;0.70;;;;;;;6.04;65.87;98748.46;104314;1277;100684;-70
2022/02/18 02:07:54;;;;;;;0.90;0.90;;;;;;;6.03;65.85;98744.63;104144;1276;139849;-70
2022/02/18 02:10:22;;;;;;;0.80;0.80;;;;;;;6.04;66.06;98746.16;104237;1277;95256;-71
2022/02/18 02:12:53;;;;;;;0.70;0.70;;;;;;;6.06;65.98;98745.06;104157;1277;138991;-71
2022/02/18 02:15:31;;;;;;;0.90;0.90;;;;;;;6.04;65.86;98742.48;104245;1277;110089;-70
2022/02/18 02:18:01;;;;;;;0.70;0.70;;;;;;;5.99;65.78;98746.16;104174;1277;143564;-71
2022/02/18 02:20:29;;;;;;;0.80;0.80;;;;;;;5.97;65.84;98742.32;104345;1276;110135;-71
2022/02/18 02:22:58;;;;;;;0.70;0.70;;;;;;;5.97;65.74;98746.73;104173;1277;95434;-73
2022/02/18 02:25:34;;;;;;;0.80;0.80;;;;;;;5.98;65.58;98753.76;104057;1277;140134;-71
2022/02/18 02:28:03;;;;;;;0.80;0.80;;;;;;;5.99;65.67;98756.90;104436;1276;110270;-73
2022/02/18 02:30:33;;;;;;;0.80;0.80;;;;;;;5.99;65.62;98765.36;104073;1277;140043;-72
2022/02/18 02:33:03;;;;;;;0.80;0.80;;;;;;;5.99;65.74;98765.35;104180;1276;109363;-71
2022/02/18 02:35:34;;;;;;;0.80;0.80;;;;;;;5.98;66.20;98770.14;104230;1277;95224;-72
2022/02/18 02:38:02;;;;;;;0.80;0.80;;;;;;;5.96;66.53;98771.10;104109;1277;139550;-70
2022/02/18 02:40:30;;;;;;;0.80;0.80;;;;;;;5.90;67.12;98776.73;104208;1277;110375;-70
2022/02/18 02:42:58;;;;;;;0.80;0.80;;;;;;;5.86;67.31;98777.58;104028;1277;140748;-69
2022/02/18 02:45:25;;;;;;;0.70;0.70;;;;;;;5.84;67.86;98778.87;104180;1277;109187;-71
2022/02/18 02:47:54;;;;;;;0.80;0.80;;;;;;;5.83;67.90;98778.02;104082;1276;140329;-72
2022/02/18 02:50:41;;;;;;;0.80;0.80;;;;;;;5.81;68.18;98784.09;104137;1277;95688;-72
2022/02/18 02:53:10;;;;;;;0.80;0.80;;;;;;;5.86;68.62;98786.55;104294;1277;109583;-73
2022/02/18 02:55:38;;;;;;;0.80;0.80;;;;;;;5.83;68.35;98784.88;104064;1277;141666;-71
2022/02/18 02:58:06;;;;;;;0.80;0.80;;;;;;;5.80;68.63;98783.76;104260;1277;109499;-72
2022/02/18 03:00:35;;;;;;;0.70;0.70;;;;;;;5.83;68.99;98787.34;104179;1276;139984;-72
2022/02/18 03:03:03;;;;;;;0.70;0.70;;;;;;;5.85;68.53;98790.10;104337;1276;95227;-72
2022/02/18 03:05:36;;;;;;;0.70;0.70;;;;;;;5.84;68.63;98798.23;104290;1276;110153;-72
2022/02/18 03:08:04;;;;;;;0.80;0.80;;;;;;;5.77;68.55;98806.94;104071;1277;139386;-72
2022/02/18 03:10:35;;;;;;;0.80;0.80;;;;;;;5.75;68.91;98809.64;104210;1277;109743;-72
2022/02/18 03:13:04;;;;;;;0.80;0.80;;;;;;;5.76;69.10;98818.58;104103;1276;141326;-72
2022/02/18 03:15:33;;;;;;;0.80;0.80;;;;;;;5.71;69.23;98823.86;104245;1276;95135;-72
2022/02/18 03:18:06;;;;;;;0.80;0.80;;;;;;;5.66;69.14;98824.01;104149;1277;141138;-73
2022/02/18 03:20:33;;;;;;;0.80;0.80;;;;;;;5.63;69.65;98824.09;104197;1277;99895;-72
2022/02/18 03:23:01;;;;;;;0.80;0.80;;;;;;;5.58;69.76;98826.38;104158;1277;109299;-72
2022/02/18 03:25:29;;;;;;;0.80;0.80;;;;;;;5.56;69.43;98830.32;104126;1277;139747;-73
2022/02/18 03:27:57;;;;;;;0.70;0.70;;;;;;;5.58;69.82;98830.61;104253;1277;95334;-73
2022/02/18 03:30:26;;;;;;;0.80;0.80;;;;;;;5.56;69.51;98832.77;104330;1277;139320;-73
2022/02/18 03:32:54;;;;;;;0.80;0.80;;;;;;;5.58;69.67;98833.61;104279;1276;100138;-73
2022/02/18 03:35:24;;;;;;;0.80;0.80;;;;;;;5.57;69.25;98839.25;104161;1277;109566;-73
2022/02/18 03:37:52;;;;;;;0.80;0.80;;;;;;;5.56;69.12;98835.95;104172;1276;141201;-73
2022/02/18 03:40:41;;;;;;;0.80;0.80;;;;;;;5.56;68.76;98836.81;104064;1277;187419;-73
2022/02/18 03:43:14;;;;;;;0.80;0.80;;;;;;;5.55;68.44;98839.84;104171;1276;138895;-72
2022/02/18 03:46:14;;;;;;;0.80;0.80;;;;;;;5.50;68.31;98840.01;104110;1277;99796;-73
2022/02/18 03:48:44;;;;;;;0.80;0.80;;;;;;;5.50;68.28;98843.68;104124;1276;139550;-72
2022/02/18 03:51:12;;;;;;;0.80;0.80;;;;;;;5.52;68.06;98852.61;104125;1277;95282;-73
2022/02/18 03:53:40;;;;;;;0.80;0.80;;;;;;;5.54;68.10;98853.61;104190;1277;95679;-73
2022/02/18 03:56:14;;;;;;;0.80;0.80;;;;;;;5.57;68.04;98860.20;104277;1277;139960;-73
2022/02/18 03:58:43;;;;;;;0.80;0.80;;;;;;;5.60;67.76;98870.86;104264;1276;99906;-72
2022/02/18 04:01:11;;;;;;;0.80;0.80;;;;;;;5.58;67.32;98868.96;104162;1276;141140;-72
2022/02/18 04:03:41;;;;;;;0.80;0.80;;;;;;;5.58;66.70;98875.67;104200;1277;95276;-73
2022/02/18 04:06:31;;;;;;;0.90;0.90;;;;;;;5.58;66.54;98882.88;104207;1277;139509;-74
2022/02/18 04:09:08;;;;;;;0.80;0.80;;;;;;;5.59;66.13;98887.27;104239;1277;111503;-74
2022/02/18 04:11:46;;;;;;;0.80;0.80;;;;;;;5.58;66.19;98893.81;104208;1277;99876;-72
2022/02/18 04:14:14;;;;;;;0.80;0.80;;;;;;;5.62;66.30;98899.84;104097;1276;139271;-71
2022/02/18 04:16:43;;;;;;;0.80;0.80;;;;;;;5.62;65.85;98902.13;104179;1276;95748;-73
2022/02/18 04:19:17;;;;;;;0.80;0.80;;;;;;;5.61;65.85;98903.75;104219;1277;138441;-72
2022/02/18 04:22:04;;;;;;;0.90;0.90;;;;;;;5.61;66.15;98917.84;104183;1277;107650;-73
2022/02/18 04:24:37;;;;;;;0.70;0.70;;;;;;;5.63;65.20;98923.06;104205;1277;140030;-72
2022/02/18 04:27:06;;;;;;;0.70;0.70;;;;;;;5.62;65.05;98931.70;104274;1276;109683;-72
2022/02/18 04:29:34;;;;;;;0.80;0.80;;;;;;;5.65;65.36;98932.34;104258;1277;95222;-72
2022/02/18 04:32:02;;;;;;;0.90;0.90;;;;;;;5.64;65.55;98934.83;104187;1277;139843;-72
2022/02/18 04:34:30;;;;;;;0.80;0.80;;;;;;;5.65;65.56;98941.31;104268;1276;109134;-72
2022/02/18 04:36:58;;;;;;;0.80;0.80;;;;;;;5.67;65.65;98946.70;104162;1276;140012;-72
2022/02/18 04:39:26;;;;;;;0.80;0.80;;;;;;;5.67;65.27;98953.05;104264;1276;109254;-72
2022/02/18 04:41:54;;;;;;;0.90;0.90;;;;;;;5.64;64.73;98961.22;104115;1276;139336;-73
2022/02/18 04:44:21;;;;;;;0.80;0.80;;;;;;;5.66;65.08;98955.38;104308;1276;95536;-72
2022/02/18 04:46:49;;;;;;;0.80;0.80;;;;;;;5.71;64.88;98970.02;104307;1277;110229;-73
2022/02/18 04:49:21;;;;;;;0.70;0.70;;;;;;;5.73;64.54;98975.23;104223;1277;139702;-72
2022/02/18 04:52:09;;;;;;;0.90;0.90;;;;;;;5.75;64.58;98982.77;104240;1276;109507;-72
2022/02/18 04:54:37;;;;;;;0.80;0.80;;;;;;;5.68;64.03;98989.10;104131;1277;140342;-73
2022/02/18 04:57:05;;;;;;;0.80;0.80;;;;;;;5.67;64.44;98994.07;104312;1276;95201;-72
2022/02/18 04:59:32;;;;;;;0.80;0.80;;;;;;;5.71;63.91;99000.13;104248;1276;110018;-72
2022/02/18 05:02:00;;;;;;;0.90;0.90;;;;;;;5.77;64.43;99000.83;104185;1277;140758;-71
2022/02/18 05:04:28;;;;;;;0.80;0.80;;;;;;;5.79;63.98;99006.58;104244;1276;107729;-72
2022/02/18 05:06:56;;;;;;;0.80;0.80;;;;;;;5.78;63.53;99013.11;104143;1277;138962;-72
2022/02/18 05:09:23;;;;;;;0.80;0.80;;;;;;;5.76;63.80;99013.20;104287;1276;96758;-72
2022/02/18 05:11:51;;;;;;;0.80;0.80;;;;;;;5.81;63.88;99017.25;104195;1277;140825;-73
2022/02/18 05:14:19;;;;;;;0.80;0.80;;;;;;;5.85;63.75;99024.55;104226;1276;99893;-72
2022/02/18 05:16:47;;;;;;;0.70;0.70;;;;;;;5.85;63.86;99028.41;104253;1276;109310;-71
2022/02/18 05:19:14;;;;;;;0.90;0.90;;;;;;;5.82;63.45;99038.38;104160;1276;138915;-72
2022/02/18 05:21:42;;;;;;;0.90;0.90;;;;;;;5.79;63.62;99038.27;104241;1276;96593;-71
2022/02/18 05:24:10;;;;;;;0.80;0.80;;;;;;;5.83;63.43;99046.79;104143;1276;139751;-71
2022/02/18 05:26:43;;;;;;;0.80;0.80;;;;;;;5.81;63.15;99049.69;104229;1276;100078;-72
2022/02/18 05:29:11;;;;;;;0.90;0.90;;;;;;;5.79;63.20;99049.91;104572;1276;107838;-72
2022/02/18 05:31:39;;;;;;;0.80;0.80;;;;;;;5.77;62.71;99055.95;104174;1276;140061;-73
2022/02/18 05:34:11;;;;;;;0.90;0.90;;;;;;;5.72;62.50;99057.15;104250;1276;95160;-71
2022/02/18 05:36:39;;;;;;;0.80;0.80;;;;;;;5.72;62.37;99061.36;104224;1276;140854;-71
2022/02/18 05:39:07;;;;;;;0.80;0.80;;;;;;;5.74;62.93;99062.75;104302;1276;100437;-71
2022/02/18 05:41:35;;;;;;;0.80;0.80;;;;;;;5.76;62.61;99072.89;104347;1276;109243;-72
2022/02/18 05:44:03;;;;;;;0.90;0.90;;;;;;;5.74;62.47;99066.77;104168;1276;140968;-71
2022/02/18 05:46:31;;;;;;;0.90;0.90;;;;;;;5.73;62.35;99067.53;104337;1276;95333;-71
2022/02/18 05:48:58;;;;;;;0.80;0.80;;;;;;;5.72;62.11;99073.54;104229;1277;139862;-72
2022/02/18 05:51:26;;;;;;;0.80;0.80;;;;;;;5.73;62.52;99075.09;104297;1276;99898;-71
2022/02/18 05:53:54;;;;;;;0.90;0.90;;;;;;;5.76;62.46;99087.51;104205;1276;140790;-71
2022/02/18 05:56:21;;;;;;;0.90;0.90;;;;;;;5.75;62.60;99089.10;104274;1276;95239;-71
2022/02/18 05:58:49;;;;;;;0.90;0.90;;;;;;;5.72;62.60;99093.45;104275;1276;95573;-71
2022/02/18 06:01:20;;;;;;;0.80;0.80;;;;;;;5.73;62.65;99096.73;104204;1276;141429;-72
2022/02/18 06:03:48;;;;;;;0.80;0.80;;;;;;;5.78;62.69;99105.22;104341;1276;100159;-72
2022/02/18 06:06:16;;;;;;;0.80;0.80;;;;;;;5.82;62.38;99110.77;104247;1276;139248;-71
2022/02/18 06:08:46;;;;;;;0.80;0.80;;;;;;;5.84;62.52;99118.45;104293;1276;95192;-71
2022/02/18 06:11:14;;;;;;;0.80;0.80;;;;;;;5.84;62.71;99121.26;104288;1276;95190;-71
2022/02/18 06:13:41;;;;;;;0.80;0.80;;;;;;;5.86;62.82;99125.10;104178;1276;140051;-71
2022/02/18 06:16:09;;;;;;;0.80;0.80;;;;;;;5.88;62.58;99132.09;104312;1277;99118;-71
2022/02/18 06:18:37;;;;;;;0.80;0.80;;;;;;;5.87;62.76;99128.77;104240;1277;140326;-71
2022/02/18 06:21:04;;;;;;;0.80;0.80;;;;;;;5.82;62.86;99134.35;104322;1276;95219;-71
2022/02/18 06:23:32;;;;;;;0.80;0.80;;;;;;;5.76;62.74;99143.51;104255;1276;95200;-71
2022/02/18 06:26:01;;;;;;;0.80;0.80;;;;;;;5.78;62.84;99149.63;104284;1277;140803;-71
2022/02/18 06:28:28;;;;;;;0.80;0.80;;;;;;;5.78;62.37;99146.96;104171;1276;99981;-71
2022/02/18 06:30:56;;;;;;;0.80;0.80;;;;;;;5.81;62.72;99149.36;104215;1277;138696;-71
2022/02/18 06:33:24;;;;;;;0.80;0.80;;;;;;;5.82;62.17;99145.27;104359;1277;95160;-71
2022/02/18 06:35:52;;;;;;;0.80;0.80;;;;;;;5.77;62.28;99147.55;104240;1277;139096;-71
2022/02/18 06:38:20;;;;;;;0.80;0.80;;;;;;;5.78;62.40;99149.77;104301;1276;110214;-71
2022/02/18 06:40:47;;;;;;;0.80;0.80;;;;;;;5.82;62.26;99153.56;104319;1276;100967;-71
2022/02/18 06:43:16;;;;;;;0.70;0.70;;;;;;;5.83;61.92;99155.63;104211;1276;139179;-71
2022/02/18 06:45:44;;;;;;;0.80;0.80;;;;;;;5.89;62.23;99157.80;104183;1276;95928;-73
2022/02/18 06:48:15;;;;;;;0.90;0.90;;;;;;;5.92;62.31;99165.09;104231;1276;139598;-72
2022/02/18 06:50:43;;;;;;;0.80;0.80;;;;;;;5.97;62.01;99169.02;104336;1276;110459;-72
2022/02/18 06:53:11;;;;;;;0.80;0.80;;;;;;;6.00;61.89;99173.20;104369;1276;99906;-71
2022/02/18 06:55:39;;;;;;;0.70;0.70;;;;;;;6.01;61.60;99174.94;104131;1276;139088;-72
2022/02/18 06:58:06;;;;;;;1.00;1.00;;;;;;;5.99;61.31;99180.25;104317;1276;95567;-71
2022/02/18 07:00:34;;;;;;;0.80;0.80;;;;;;;5.97;61.60;99184.00;104171;1277;139139;-72
2022/02/18 07:03:03;;;;;;;0.80;0.80;;;;;;;6.00;61.60;99187.83;104373;1276;110551;-71
2022/02/18 07:05:33;;;;;;;0.80;0.80;;;;;;;6.05;61.62;99188.05;104332;1276;100053;-71
2022/02/18 07:08:02;;;;;;;0.80;0.80;;;;;;;6.03;61.17;99193.91;104149;1276;138754;-71
2022/02/18 07:10:29;;;;;;;0.80;0.80;;;;;;;6.02;61.49;99194.98;104320;1276;95502;-71
2022/02/18 07:12:59;;;;;;;0.80;0.80;;;;;;;6.00;61.54;99201.38;104147;1276;139450;-70
2022/02/18 07:15:27;;;;;;;0.90;0.90;;;;;;;6.03;61.88;99198.64;104238;1276;110230;-71
2022/02/18 07:17:55;;;;;;;0.90;0.90;;;;;;;6.12;61.67;99200.00;104198;1276;138722;-72
2022/02/18 07:20:23;;;;;;;0.80;0.80;;;;;;;6.15;61.57;99202.57;104291;1277;108906;-71
2022/02/18 07:22:51;;;;;;;0.80;0.80;;;;;;;6.19;61.18;99205.44;104340;1276;95228;-72
2022/02/18 07:25:20;;;;;;;0.80;0.80;;;;;;;6.22;61.29;99207.33;104307;1276;138972;-71
2022/02/18 07:27:48;;;;;;;0.90;0.90;;;;;;;6.23;61.45;99213.10;104510;1276;110302;-71
2022/02/18 07:30:15;;;;;;;0.80;0.80;;;;;;;6.34;61.34;99213.50;104312;1276;139838;-72
2022/02/18 07:32:43;;;;;;;0.70;0.70;;;;;;;6.45;61.03;99220.59;104485;1276;110070;-71
2022/02/18 07:35:11;;;;;;;0.80;0.80;;;;;;;6.45;60.04;99223.04;104350;1276;95856;-71
2022/02/18 07:37:40;;;;;;;0.80;0.80;;;;;;;6.36;59.47;99223.48;104269;1276;139493;-72
2022/02/18 07:40:08;;;;;;;0.80;0.80;;;;;;;6.29;59.66;99223.84;104406;1276;109323;-71
2022/02/18 07:42:36;;;;;;;1.00;1.00;;;;;;;6.26;59.86;99225.52;104351;1276;140550;-71
2022/02/18 07:45:05;;;;;;;0.80;0.80;;;;;;;6.24;59.42;99231.93;104312;1276;109472;-72
2022/02/18 07:47:33;;;;;;;0.80;0.80;;;;;;;6.23;59.81;99236.00;104854;1276;95234;-71
2022/02/18 07:50:00;;;;;;;0.80;0.80;;;;;;;6.31;59.65;99238.45;104308;1276;140100;-71
2022/02/18 07:52:28;;;;;;;0.70;0.70;;;;;;;6.32;59.53;99240.52;104349;1276;110373;-72
2022/02/18 07:54:56;;;;;;;0.80;0.80;;;;;;;6.33;59.35;99240.86;104333;1277;139248;-73
2022/02/18 07:57:25;;;;;;;0.70;0.70;;;;;;;6.36;59.50;99247.64;104360;1276;109445;-72
2022/02/18 07:59:53;;;;;;;0.80;0.80;;;;;;;6.36;59.44;99255.56;104308;1277;140898;-71
2022/02/18 08:02:20;;;;;;;0.70;0.70;;;;;;;6.31;59.69;99254.66;104472;1276;95248;-72
2022/02/18 08:04:49;;;;;;;0.80;0.80;;;;;;;6.33;59.87;99254.61;104393;1276;109557;-71
2022/02/18 08:07:16;;;;;;;0.70;0.70;;;;;;;6.36;59.87;99254.15;104325;1276;138788;-72
2022/02/18 08:09:44;;;;;;;0.70;0.70;;;;;;;6.36;59.48;99260.15;104390;1276;110065;-71
2022/02/18 08:12:12;;;;;;;0.70;0.70;;;;;;;6.37;59.97;99266.83;104256;1276;140358;-73
2022/02/18 08:14:40;;;;;;;0.70;0.70;;;;;;;6.40;60.17;99268.15;104362;1276;95649;-71
2022/02/18 08:17:07;;;;;;;0.70;0.70;;;;;;;6.40;60.05;99264.80;104354;1276;109830;-73
2022/02/18 08:19:35;;;;;;;0.80;0.80;;;;;;;6.40;59.49;99273.43;104245;1276;140091;-73
2022/02/18 08:22:03;;;;;;;0.70;0.70;;;;;;;6.41;59.60;99271.84;104383;1276;109565;-70
2022/02/18 08:24:36;;;;;;;0.80;0.80;;;;;;;6.39;59.40;99280.55;104261;1276;139238;-72
2022/02/18 08:27:06;;;;;;;0.70;0.70;;;;;;;6.40;59.93;99282.80;104366;1276;95140;-71
2022/02/18 08:29:34;;;;;;;0.80;0.80;;;;;;;6.45;59.55;99286.55;104411;1276;108369;-71
2022/02/18 08:32:02;;;;;;;0.80;0.80;;;;;;;6.45;59.56;99286.52;104193;1278;139007;-72
2022/02/18 08:34:30;;;;;;;0.70;0.70;;;;;;;6.55;59.42;99286.09;104345;1276;109985;-71
2022/02/18 08:37:01;;;;;;;0.80;0.80;;;;;;;6.62;59.40;99290.30;104203;1276;139976;-71
2022/02/18 08:39:30;;;;;;;0.70;0.70;;;;;;;6.76;59.51;99298.55;104370;1276;95719;-71
2022/02/18 08:41:57;;;;;;;0.70;0.70;;;;;;;6.87;59.02;99296.30;104255;1276;140818;-71
2022/02/18 08:44:25;;;;;;;0.80;0.80;;;;;;;6.92;58.52;99299.68;104400;1276;100420;-73
2022/02/18 08:46:53;;;;;;;0.70;0.70;;;;;;;6.82;58.35;99306.66;104348;1276;110381;-70
2022/02/18 08:49:21;;;;;;;0.70;0.70;;;;;;;6.74;58.28;99301.06;104296;1276;139519;-71
2022/02/18 08:51:51;;;;;;;0.80;0.80;;;;;;;6.70;58.37;99305.25;104406;1276;95651;-71
2022/02/18 08:54:18;;;;;;;0.70;0.70;;;;;;;6.68;58.44;99311.09;104238;1276;139360;-71
2022/02/18 08:56:46;;;;;;;0.70;0.70;;;;;;;6.64;58.27;99319.34;104409;1276;99803;-71
2022/02/18 08:59:14;;;;;;;0.80;0.80;;;;;;;6.63;58.63;99324.14;104388;1276;107703;-71
2022/02/18 09:01:47;;;;;;;0.80;0.80;;;;;;;6.63;58.63;99332.09;104310;1276;137974;-73
2022/02/18 09:04:15;;;;;;;0.80;0.80;;;;;;;6.62;58.47;99336.15;104742;1276;95857;-70
2022/02/18 09:06:43;;;;;;;0.70;0.70;;;;;;;6.65;58.22;99344.71;104180;1276;140169;-73
2022/02/18 09:09:10;;;;;;;0.70;0.70;;;;;;;6.64;58.26;99347.39;104378;1276;98374;-71
2022/02/18 09:11:41;;;;;;;0.70;0.70;;;;;;;6.62;58.15;99349.20;104352;1276;108325;-71
2022/02/18 09:14:09;;;;;;;0.80;0.80;;;;;;;6.58;58.08;99351.26;104211;1277;139353;-72
2022/02/18 09:16:40;;;;;;;0.70;0.70;;;;;;;6.66;58.39;99356.15;104312;1276;95220;-71
2022/02/18 09:19:07;;;;;;;0.80;0.80;;;;;;;6.65;58.30;99359.70;104298;1276;139297;-72
2022/02/18 09:21:35;;;;;;;0.70;0.70;;;;;;;6.68;58.46;99362.45;104349;1276;98626;-71
2022/02/18 09:24:06;;;;;;;0.70;0.70;;;;;;;6.70;58.82;99363.61;104304;1276;139983;-71
2022/02/18 09:26:33;;;;;;;0.70;0.70;;;;;;;6.69;58.51;99374.41;104434;1276;95258;-72
2022/02/18 09:29:01;;;;;;;0.80;0.80;;;;;;;6.68;58.72;99376.39;104342;1276;95218;-72
2022/02/18 09:31:29;;;;;;;0.80;0.80;;;;;;;6.62;58.55;99376.71;104262;1276;139784;-72
2022/02/18 09:33:57;;;;;;;0.70;0.70;;;;;;;6.67;58.53;99379.92;104350;1277;98149;-72
2022/02/18 09:36:24;;;;;;;0.70;0.70;;;;;;;6.71;58.65;99387.42;104266;1276;140326;-70
2022/02/18 09:38:52;;;;;;;0.70;0.70;;;;;;;6.69;58.21;99389.77;104340;1276;95233;-71
2022/02/18 09:41:20;;;;;;;0.70;0.70;;;;;;;6.61;58.03;99392.27;104372;1277;95221;-70
2022/02/18 09:43:49;;;;;;;0.70;0.70;;;;;;;6.59;58.67;99393.58;104165;1276;143108;-71
2022/02/18 09:46:19;;;;;;;0.80;0.80;;;;;;;6.58;58.34;99397.83;104346;1276;100254;-72
2022/02/18 09:48:48;;;;;;;0.80;0.80;;;;;;;6.55;58.43;99395.08;104266;1276;138667;-71
2022/02/18 09:51:18;;;;;;;0.90;0.90;;;;;;;6.58;58.26;99401.53;104385;1276;95951;-71
2022/02/18 09:53:47;;;;;;;0.70;0.70;;;;;;;6.63;58.24;99402.63;104611;1276;95237;-71
2022/02/18 09:56:17;;;;;;;0.70;0.70;;;;;;;6.72;58.48;99406.80;104173;1276;139326;-70
2022/02/18 09:58:45;;;;;;;0.70;0.70;;;;;;;6.74;57.79;99409.04;104314;1276;99751;-71
2022/02/18 10:01:14;;;;;;;0.70;0.70;;;;;;;6.73;57.76;99410.65;104257;1276;137677;-69
2022/02/18 10:03:41;;;;;;;0.80;0.80;;;;;;;6.75;57.70;99411.47;104416;1276;95137;-70
2022/02/18 10:06:09;;;;;;;0.80;0.80;;;;;;;6.71;57.45;99411.77;104172;1276;138608;-73
2022/02/18 10:08:51;;;;;;;0.80;0.80;;;;;;;6.64;57.47;99413.52;104450;1277;109946;-70
2022/02/18 10:11:18;;;;;;;0.80;0.80;;;;;;;6.59;57.89;99407.84;104425;1276;99845;-71
2022/02/18 10:13:47;;;;;;;0.90;0.90;;;;;;;6.64;58.32;99411.40;104180;1276;142400;-70
2022/02/18 10:16:15;;;;;;;0.70;0.70;;;;;;;6.71;57.80;99415.29;104285;1276;95230;-71
2022/02/18 10:18:46;;;;;;;0.70;0.70;;;;;;;6.68;57.67;99424.89;104146;1277;139663;-70
2022/02/18 10:21:16;;;;;;;0.80;0.80;;;;;;;6.68;57.72;99424.18;104391;1276;109611;-71
2022/02/18 10:23:45;;;;;;;0.80;0.80;;;;;;;6.76;58.12;99426.97;104406;1276;99838;-70
2022/02/18 10:26:13;;;;;;;0.70;0.70;;;;;;;6.91;58.16;99429.59;104681;1276;138828;-70
2022/02/18 10:28:40;;;;;;;0.70;0.70;;;;;;;7.01;57.08;99431.08;104221;1279;95300;-71
2022/02/18 10:31:08;;;;;;;0.70;0.70;;;;;;;6.95;57.18;99434.77;104283;1276;139182;-72
2022/02/18 10:33:37;;;;;;;0.80;0.80;;;;;;;6.91;57.30;99437.17;104347;1276;110284;-73
2022/02/18 10:36:07;;;;;;;0.70;0.70;;;;;;;6.89;57.91;99441.46;104232;1276;139967;-71
2022/02/18 10:38:37;;;;;;;0.70;0.70;;;;;;;6.93;58.17;99439.94;104356;1276;109437;-71
2022/02/18 10:41:23;;;;;;;0.70;0.70;;;;;;;7.00;57.49;99448.41;104857;1276;95405;-70
2022/02/18 10:43:56;;;;;;;0.70;0.70;;;;;;;7.10;57.83;99451.11;104258;1276;138738;-70
2022/02/18 10:46:42;;;;;;;0.70;0.70;;;;;;;7.18;56.98;99453.56;104333;1276;110132;-71
2022/02/18 10:49:22;;;;;;;0.70;0.70;;;;;;;7.20;57.63;99452.45;104286;1276;139691;-70
2022/02/18 10:51:51;;;;;;;0.70;0.70;;;;;;;7.13;56.94;99453.16;104396;1277;109776;-70
2022/02/18 10:54:32;;;;;;;0.70;0.70;;;;;;;7.11;56.82;99451.45;104275;1277;138959;-71
2022/02/18 10:57:16;;;;;;;0.70;0.70;;;;;;;7.10;56.39;99453.92;104335;1276;95200;-70
2022/02/18 10:59:44;;;;;;;0.70;0.70;;;;;;;7.11;56.85;99455.15;104292;1276;110279;-71
2022/02/18 11:02:12;;;;;;;0.70;0.70;;;;;;;7.22;57.05;99457.86;104288;1277;138611;-71
2022/02/18 11:04:41;;;;;;;0.70;0.70;;;;;;;7.24;57.14;99456.03;104381;1276;109367;-70
2022/02/18 11:07:13;;;;;;;0.60;0.60;;;;;;;7.21;55.87;99459.82;104253;1276;141255;-71
2022/02/18 11:09:42;;;;;;;0.60;0.60;;;;;;;7.11;55.51;99449.35;104442;1276;95233;-70
2022/02/18 11:12:11;;;;;;;0.60;0.60;;;;;;;7.08;55.65;99449.95;104250;1277;139789;-70
2022/02/18 11:14:41;;;;;;;0.70;0.70;;;;;;;7.05;55.77;99449.50;104375;1276;100135;-71
2022/02/18 11:17:09;;;;;;;0.70;0.70;;;;;;;7.05;55.34;99448.45;104296;1276;109864;-70
2022/02/18 11:19:37;;;;;;;0.70;0.70;;;;;;;7.07;55.41;99454.20;104446;1277;138692;-70
2022/02/18 11:22:17;;;;;;;0.80;0.80;;;;;;;7.04;55.10;99452.70;104400;1277;95225;-72
2022/02/18 11:24:46;;;;;;;0.80;0.80;;;;;;;6.99;55.37;99452.48;104310;1276;138903;-71
2022/02/18 11:27:14;;;;;;;0.70;0.70;;;;;;;6.95;55.29;99453.84;105058;1276;99829;-70
2022/02/18 11:29:42;;;;;;;0.70;0.70;;;;;;;6.97;55.41;99453.95;104372;1276;109177;-71
2022/02/18 11:32:22;;;;;;;0.80;0.80;;;;;;;6.97;55.51;99459.77;104314;1277;139440;-70
2022/02/18 11:34:53;;;;;;;0.70;0.70;;;;;;;6.98;55.29;99456.91;104353;1276;96798;-71
2022/02/18 11:37:35;;;;;;;0.80;0.80;;;;;;;6.98;55.58;99454.09;104420;1276;137613;-71